Garden Hill, Illinois
Current Conditions -  °F | °C
As of 4:35 AM on Thursday 27 Nov 2014 (Local Time) from KFOA Reporting Station
Clear Clear  
Wind Chill: -8°   Ceiling: Unl
Heat Index: -3°   Visibility: 10mi
Dew Point: -5°   Wind: 10mph
Humidity: 86%   Direction: 340°NNW
Pressure: 30.31"   Gusts: NA
Location:  38.6949°N, 88.6407°W
Report Text: KFOA 271035Z AUTO 34009KT 10SM CLR M03/M05 A3031 RMK AO2 T10281049
Loading
Personal Weather Stations






























Interactive Weather Map New forecast layout! Learn more

10-Day Weather Forecast

Advertisements
Track Severe Weather on mobile